Hlavní strana
METAR-TAF:

METAR-TAF

Letiště :

Tulcea, Rumunsko

zeměpisná šířka: 45-11N, zeměpisná délka: 028-49E, výška: 4 m

Aktuální stav počasí

Zpráva byla vytvořena před 23 minutami, v 13:00 UTC
Západojihozápadní vítr 12 kt
Teplota 8°C
Vlhkost vzduchu 61%
Tlak 1025 hPa
Viditelnost 10 km a více
Žádná oblačnost pod 1500 m, nevyskytují se cumulonimby.

METAR: LRTC 251300Z 25012KT CAVOK 08/01 Q1025

Čas: 15:23 (13:23 UTC)

Předpověď počasí

Zpráva byla vytvořena před 2 hodinami a 23 minutami, v 11:00 UTC
Předpověď platná od 25 v 12 UTC do 25 v 21 UTC
Západojihozápadní vítr 12 kt
Viditelnost 10 km a více
Žádná oblačnost pod 1500 m, nevyskytují se cumulonimby.
Změna
od 25 v 16 UTC do 25 v 18 UTC
vítr z různých směrů 4 kt

TAF: LRTC 251100Z 2512/2521 25012KT CAVOK BECMG 2516/2518 VRB04KT

Stav a předpovědi počasí z více než 4 000 letišť (zprávy METAR a TAF).

Červené a žluté tečky na mapě představují dostupné meteorologické stanice.

Když kurzor umístíte na tečku, zobrazí se název stanice.

Pak kliknutím zobrazíte stav a předpověď počasí.

Chcete-li změnit mapu, kliknutím na zelené tlačítko se znaménkem +mapu přiblížíte, kliknutím na zelené tlačítko se znaménkem – mapu oddálíte a kliknutím na zelené šipky přejdete na sousední mapy.


METAR-TAF: